Terminal Aerodrome Forecast
Issued by NWS

Home | Current Version | Previous Version | Text Only | Print | Product List | Glossary On
Versions: 1 2 3 4 5 6 7 8 9 10 11 12 13 14 15
000
FTUS44 KTSA 012300
TAFBVO
TAF
KBVO 012330Z 0200/0224 34010G20KT P6SM OVC035
     FM020300 33010G20KT P6SM SCT035
     FM020900 35008KT P6SM SKC
     FM021500 VRB03KT P6SM SKC
     FM021900 19008KT P6SM SKC=

USA.gov is the U.S. government's official web portal to all federal, state and local government web resources and services.